createdAt,value
2023-05-10T00:00:41.852Z,14.00
2023-05-10T00:03:09.687Z,13.90
2023-05-10T00:05:39.906Z,14.00
2023-05-10T00:08:07.523Z,13.90
2023-05-10T00:10:34.744Z,13.80
2023-05-10T00:13:02.286Z,13.80
2023-05-10T00:15:31.329Z,13.80
2023-05-10T00:17:58.658Z,13.90
2023-05-10T00:20:25.969Z,13.80
2023-05-10T00:22:53.432Z,13.90
2023-05-10T00:25:22.453Z,13.80
2023-05-10T00:27:50.516Z,13.80
2023-05-10T00:30:18.583Z,13.80
2023-05-10T00:32:46.205Z,13.80
2023-05-10T00:35:14.268Z,13.70
2023-05-10T00:37:41.615Z,13.70
2023-05-10T00:40:09.204Z,13.70
2023-05-10T00:42:36.464Z,13.80
2023-05-10T00:45:04.286Z,13.80
2023-05-10T00:47:32.473Z,13.80
2023-05-10T00:50:01.650Z,13.70
2023-05-10T00:52:30.643Z,13.80
2023-05-10T00:54:59.853Z,13.80
2023-05-10T00:57:27.190Z,13.80
2023-05-10T00:59:55.105Z,13.70
2023-05-10T01:02:22.710Z,13.80
2023-05-10T01:04:51.249Z,13.70
2023-05-10T01:07:18.556Z,13.80
2023-05-10T01:09:46.164Z,13.70
2023-05-10T01:12:13.775Z,13.70
2023-05-10T01:14:42.352Z,13.70
2023-05-10T01:17:11.944Z,13.70
2023-05-10T01:19:39.376Z,13.70
2023-05-10T01:22:12.441Z,13.70
2023-05-10T01:25:04.916Z,13.70
2023-05-10T01:27:50.996Z,13.60
2023-05-10T01:33:13.474Z,13.60
2023-05-10T01:36:04.388Z,13.60
2023-05-10T01:38:45.498Z,13.60
2023-05-10T01:41:27.105Z,13.60
2023-05-10T01:44:01.884Z,13.60
2023-05-10T01:46:39.332Z,13.60
2023-05-10T01:49:12.006Z,13.50
2023-05-10T01:51:52.261Z,13.50
2023-05-10T01:54:22.705Z,13.50
2023-05-10T01:57:00.398Z,13.50
2023-05-10T01:59:32.692Z,13.50
2023-05-10T02:02:01.562Z,13.40
2023-05-10T02:04:29.650Z,13.40
2023-05-10T02:06:57.956Z,13.40
2023-05-10T02:09:28.860Z,13.50
2023-05-10T02:11:57.633Z,13.50
2023-05-10T02:14:26.914Z,13.40
2023-05-10T02:16:56.358Z,13.40
2023-05-10T02:19:25.946Z,13.40
2023-05-10T02:21:54.409Z,13.40
2023-05-10T02:24:23.106Z,13.40
2023-05-10T02:26:52.176Z,13.40
2023-05-10T02:29:21.213Z,13.40
2023-05-10T02:31:49.273Z,13.40
2023-05-10T02:34:16.730Z,13.50
2023-05-10T02:36:47.109Z,13.50
2023-05-10T02:39:16.606Z,13.40
2023-05-10T02:41:46.836Z,13.40
2023-05-10T02:44:17.830Z,13.40
2023-05-10T02:46:45.522Z,13.40
2023-05-10T02:49:12.928Z,13.40
2023-05-10T02:51:44.831Z,13.40
2023-05-10T02:54:19.219Z,13.40
2023-05-10T02:56:54.610Z,13.50
2023-05-10T02:59:22.007Z,13.50
2023-05-10T03:01:49.295Z,13.40
2023-05-10T03:04:16.681Z,13.40
2023-05-10T03:06:44.767Z,13.40
2023-05-10T03:09:16.079Z,13.30
2023-05-10T03:11:51.260Z,13.40
2023-05-10T03:14:28.781Z,13.30
2023-05-10T03:17:16.920Z,13.30
2023-05-10T03:19:53.979Z,13.30
2023-05-10T03:22:27.464Z,13.30
2023-05-10T03:24:58.353Z,13.30
2023-05-10T03:27:30.722Z,13.30
2023-05-10T03:29:59.370Z,13.30
2023-05-10T03:32:28.177Z,13.30
2023-05-10T03:34:55.666Z,13.30
2023-05-10T03:37:25.407Z,13.30
2023-05-10T03:39:52.730Z,13.30
2023-05-10T03:42:20.869Z,13.30
2023-05-10T03:44:50.075Z,13.30
2023-05-10T03:47:17.354Z,13.40
2023-05-10T03:49:44.958Z,13.30
2023-05-10T03:52:13.570Z,13.30
2023-05-10T03:54:41.037Z,13.30
2023-05-10T03:57:08.724Z,13.30
2023-05-10T03:59:36.335Z,13.30
2023-05-10T04:02:03.914Z,13.30
2023-05-10T04:04:31.437Z,13.30
2023-05-10T04:06:59.228Z,13.30
2023-05-10T04:09:26.966Z,13.40
2023-05-10T04:11:54.182Z,13.30
2023-05-10T04:14:21.556Z,13.30
2023-05-10T04:16:48.881Z,13.50
2023-05-10T04:19:16.365Z,13.40
2023-05-10T04:21:43.547Z,13.40
2023-05-10T04:24:10.761Z,13.40
2023-05-10T04:26:37.930Z,13.30
2023-05-10T04:29:05.810Z,13.50
2023-05-10T04:31:33.364Z,13.40
2023-05-10T04:34:00.678Z,13.40
2023-05-10T04:36:28.778Z,13.40
2023-05-10T04:38:56.000Z,13.40
2023-05-10T04:41:23.177Z,13.50
2023-05-10T04:43:50.476Z,13.40
2023-05-10T04:46:17.870Z,13.40
2023-05-10T04:48:45.124Z,13.40
2023-05-10T04:51:12.449Z,13.50
2023-05-10T04:53:39.722Z,13.40
2023-05-10T04:56:07.854Z,13.40
2023-05-10T04:58:35.059Z,13.50
2023-05-10T05:01:11.886Z,13.40
2023-05-10T05:03:39.321Z,13.40
2023-05-10T05:06:06.972Z,13.40
2023-05-10T05:08:34.186Z,13.40
2023-05-10T05:11:01.576Z,13.30
2023-05-10T05:13:28.822Z,13.20
2023-05-10T05:15:56.656Z,13.20
2023-05-10T05:18:23.944Z,13.20
2023-05-10T05:20:51.958Z,13.10
2023-05-10T05:23:21.667Z,12.90
2023-05-10T05:25:48.944Z,12.90
2023-05-10T05:28:16.173Z,12.90
2023-05-10T05:30:43.410Z,12.70
2023-05-10T05:33:10.688Z,12.70
2023-05-10T05:35:37.997Z,12.60
2023-05-10T05:38:05.443Z,12.50
2023-05-10T05:40:32.827Z,12.40
2023-05-10T05:43:00.076Z,12.50
2023-05-10T05:45:27.315Z,12.40
2023-05-10T05:47:54.764Z,12.40
2023-05-10T05:50:22.268Z,12.40
2023-05-10T05:52:49.515Z,12.20
2023-05-10T05:55:17.058Z,11.90
2023-05-10T05:57:44.686Z,11.80
2023-05-10T06:00:12.328Z,11.80
2023-05-10T06:02:42.826Z,11.80
2023-05-10T06:05:10.215Z,11.80
2023-05-10T06:07:37.526Z,12.00
2023-05-10T06:10:05.171Z,11.90
2023-05-10T06:12:32.874Z,11.90
2023-05-10T06:15:00.256Z,12.00
2023-05-10T06:17:28.520Z,12.10
2023-05-10T06:19:56.534Z,12.10
2023-05-10T06:22:24.709Z,12.20
2023-05-10T06:24:52.968Z,12.20
2023-05-10T06:27:20.195Z,12.10
2023-05-10T06:29:47.340Z,12.30
2023-05-10T06:32:14.541Z,12.40
2023-05-10T06:34:42.146Z,12.40
2023-05-10T06:37:09.333Z,12.40
2023-05-10T06:39:36.701Z,12.50
2023-05-10T06:42:05.465Z,12.70
2023-05-10T06:44:34.262Z,12.80
2023-05-10T06:47:01.532Z,12.80
2023-05-10T06:49:28.757Z,12.80
2023-05-10T06:51:58.101Z,12.90
2023-05-10T06:54:25.485Z,12.90
2023-05-10T06:56:53.105Z,13.00
2023-05-10T06:59:20.548Z,13.10
2023-05-10T07:01:47.836Z,13.20
2023-05-10T07:04:16.111Z,13.50
2023-05-10T07:06:43.481Z,13.40
2023-05-10T07:09:10.713Z,13.50
2023-05-10T07:11:38.554Z,13.60
2023-05-10T07:14:06.051Z,13.50
2023-05-10T07:16:33.659Z,13.50
2023-05-10T07:19:00.894Z,13.40
2023-05-10T07:21:29.576Z,13.50
2023-05-10T07:23:56.916Z,13.40
2023-05-10T07:26:24.970Z,13.50
2023-05-10T07:28:52.229Z,13.40
2023-05-10T07:31:19.444Z,13.80
2023-05-10T07:33:47.119Z,13.90
2023-05-10T07:36:14.502Z,14.10
2023-05-10T07:38:41.843Z,14.50
2023-05-10T07:41:09.037Z,14.80
2023-05-10T07:43:36.249Z,15.00
2023-05-10T07:46:03.611Z,14.90
2023-05-10T07:48:31.268Z,14.60
2023-05-10T07:50:58.446Z,14.70
2023-05-10T07:53:27.498Z,14.70
2023-05-10T07:56:20.406Z,14.80
2023-05-10T07:58:47.546Z,14.90
2023-05-10T08:01:14.972Z,15.20
2023-05-10T08:03:42.204Z,15.30
2023-05-10T08:06:09.496Z,15.40
2023-05-10T08:08:37.089Z,15.30
2023-05-10T08:11:05.094Z,15.30
2023-05-10T08:13:32.413Z,15.60
2023-05-10T08:15:59.672Z,15.60
2023-05-10T08:18:26.873Z,15.90
2023-05-10T08:20:55.031Z,16.20
2023-05-10T08:23:22.203Z,16.00
2023-05-10T08:25:49.397Z,15.90
2023-05-10T08:28:16.632Z,15.80
2023-05-10T08:30:43.836Z,16.00
2023-05-10T08:33:11.055Z,16.00
2023-05-10T08:35:38.221Z,16.00
2023-05-10T08:38:05.610Z,15.90
2023-05-10T08:40:32.870Z,15.80
2023-05-10T08:43:09.811Z,15.60
2023-05-10T08:45:42.092Z,15.30
2023-05-10T08:48:11.215Z,15.10
2023-05-10T08:50:40.931Z,14.90
2023-05-10T08:53:11.907Z,14.90
2023-05-10T08:55:41.005Z,14.80
2023-05-10T08:58:09.233Z,14.80
2023-05-10T09:00:38.075Z,14.60
2023-05-10T09:03:07.261Z,14.60
2023-05-10T09:05:34.601Z,14.80
2023-05-10T09:08:02.036Z,14.60
2023-05-10T09:10:30.444Z,14.60
2023-05-10T09:12:59.493Z,14.70
2023-05-10T09:15:27.087Z,14.70
2023-05-10T09:17:56.139Z,14.80
2023-05-10T09:20:23.504Z,14.90
2023-05-10T09:22:50.757Z,15.00
2023-05-10T09:25:18.478Z,15.20
2023-05-10T09:27:48.304Z,15.40
2023-05-10T09:30:25.684Z,15.60
2023-05-10T09:32:54.049Z,15.60
2023-05-10T09:35:25.043Z,15.80
2023-05-10T09:37:55.841Z,15.60
2023-05-10T09:40:27.236Z,15.50
2023-05-10T09:43:11.776Z,15.50
2023-05-10T09:45:39.367Z,15.60
2023-05-10T09:48:07.504Z,15.60
2023-05-10T09:50:35.375Z,15.70
2023-05-10T09:53:04.580Z,15.80
2023-05-10T09:55:58.430Z,16.00
2023-05-10T09:58:25.701Z,16.20
2023-05-10T10:00:54.693Z,16.20
2023-05-10T10:03:22.670Z,16.60
2023-05-10T10:05:50.679Z,16.70
2023-05-10T10:08:18.684Z,17.00
2023-05-10T10:10:46.995Z,17.20
2023-05-10T10:13:15.160Z,17.20
2023-05-10T10:15:44.657Z,17.10
2023-05-10T10:18:18.304Z,17.00
2023-05-10T10:20:46.578Z,17.00
2023-05-10T10:23:15.149Z,16.90
2023-05-10T10:25:45.723Z,17.10
2023-05-10T10:28:49.445Z,17.30
2023-05-10T10:31:25.084Z,17.20
2023-05-10T10:34:00.361Z,17.30
2023-05-10T10:36:31.208Z,17.20
2023-05-10T10:39:04.338Z,17.30
2023-05-10T10:41:36.802Z,17.30
2023-05-10T10:44:40.197Z,17.00
2023-05-10T10:47:15.219Z,17.00
2023-05-10T10:49:42.483Z,17.20
2023-05-10T10:52:31.925Z,17.40
2023-05-10T10:55:03.931Z,17.60
2023-05-10T10:57:50.167Z,17.80
2023-05-10T11:00:35.999Z,18.00
2023-05-10T11:03:15.713Z,18.20
2023-05-10T11:05:43.931Z,18.20
2023-05-10T11:08:20.294Z,17.90
2023-05-10T11:10:53.264Z,17.70
2023-05-10T11:13:33.972Z,17.40
2023-05-10T11:16:12.833Z,17.00
2023-05-10T11:18:40.372Z,16.90
2023-05-10T11:21:11.503Z,16.80
2023-05-10T11:23:44.279Z,16.30
2023-05-10T11:26:12.470Z,16.20
2023-05-10T11:28:43.964Z,16.10
2023-05-10T11:31:11.656Z,16.10
2023-05-10T11:33:46.160Z,16.00
2023-05-10T11:36:19.502Z,15.80
2023-05-10T11:38:47.910Z,15.60
2023-05-10T11:41:17.689Z,15.60
2023-05-10T11:43:47.690Z,15.40
2023-05-10T11:46:15.530Z,15.40
2023-05-10T11:48:43.738Z,15.10
2023-05-10T11:51:11.977Z,14.80
2023-05-10T11:53:39.328Z,14.60
2023-05-10T11:56:10.807Z,14.40
2023-05-10T11:58:40.666Z,14.00
2023-05-10T12:01:12.666Z,14.00
2023-05-10T12:03:41.511Z,13.80
2023-05-10T12:06:09.186Z,13.60
2023-05-10T12:08:36.399Z,13.60
2023-05-10T12:11:09.165Z,13.70
2023-05-10T12:13:43.720Z,13.60
2023-05-10T12:16:16.427Z,13.50
2023-05-10T12:18:43.788Z,13.50
2023-05-10T12:21:12.844Z,13.50
2023-05-10T12:23:40.682Z,13.60
2023-05-10T12:26:11.095Z,13.50
2023-05-10T12:28:40.452Z,13.50
2023-05-10T12:31:08.417Z,13.60
2023-05-10T12:33:43.378Z,13.50
2023-05-10T12:36:16.087Z,13.40
2023-05-10T12:38:50.970Z,13.50
2023-05-10T12:41:19.238Z,13.50
2023-05-10T12:43:47.395Z,13.50
2023-05-10T12:46:18.665Z,13.60
2023-05-10T12:48:47.313Z,13.70
2023-05-10T12:51:16.670Z,13.70
2023-05-10T12:53:48.725Z,13.80
2023-05-10T12:56:16.808Z,14.00
2023-05-10T12:58:48.810Z,13.90
2023-05-10T13:01:16.565Z,14.00
2023-05-10T13:03:46.829Z,14.00
2023-05-10T13:06:14.646Z,13.90
2023-05-10T13:08:41.815Z,14.10
2023-05-10T13:11:09.006Z,14.00
2023-05-10T13:13:36.244Z,14.10
2023-05-10T13:16:03.647Z,14.10
2023-05-10T13:18:30.894Z,14.10
2023-05-10T13:20:58.294Z,14.20
2023-05-10T13:23:25.541Z,14.10
2023-05-10T13:25:53.044Z,14.20
2023-05-10T13:28:20.391Z,14.20
2023-05-10T13:30:47.530Z,14.20
2023-05-10T13:33:14.782Z,14.30
2023-05-10T13:35:42.001Z,14.30
2023-05-10T13:38:09.376Z,14.20
2023-05-10T13:40:36.952Z,14.30
2023-05-10T13:43:04.560Z,14.40
2023-05-10T13:45:31.752Z,14.40
2023-05-10T13:47:59.021Z,14.40
2023-05-10T13:50:26.654Z,14.40
2023-05-10T13:52:53.834Z,14.30
2023-05-10T13:55:21.121Z,14.30
2023-05-10T13:57:48.470Z,14.20
2023-05-10T14:00:16.150Z,14.20
2023-05-10T14:02:43.438Z,14.20
2023-05-10T14:05:11.076Z,14.20
2023-05-10T14:07:38.949Z,14.20
2023-05-10T14:10:06.545Z,14.20
2023-05-10T14:12:33.848Z,14.20
2023-05-10T14:15:01.102Z,14.30
2023-05-10T14:17:28.539Z,14.20
2023-05-10T14:19:55.857Z,14.20
2023-05-10T14:22:23.559Z,14.30
2023-05-10T14:24:51.140Z,14.40
2023-05-10T14:27:19.183Z,14.40
2023-05-10T14:29:46.565Z,14.40
2023-05-10T14:32:13.838Z,14.60
2023-05-10T14:34:41.294Z,14.50
2023-05-10T14:37:10.872Z,14.60
2023-05-10T14:39:38.799Z,14.60
2023-05-10T14:42:06.248Z,14.60
2023-05-10T14:44:33.535Z,14.60
2023-05-10T14:47:00.715Z,14.60
2023-05-10T14:49:30.503Z,14.50
2023-05-10T14:51:57.691Z,14.50
2023-05-10T14:54:25.165Z,14.20
2023-05-10T14:56:52.692Z,14.20
2023-05-10T14:59:23.551Z,14.10
2023-05-10T15:01:51.311Z,14.00
2023-05-10T15:04:19.227Z,14.00
2023-05-10T15:06:47.050Z,13.90
2023-05-10T15:09:17.462Z,13.70
2023-05-10T15:11:45.366Z,13.60
2023-05-10T15:14:12.682Z,13.50
2023-05-10T15:16:39.987Z,13.50
2023-05-10T15:19:07.265Z,13.50
2023-05-10T15:21:39.571Z,13.60
2023-05-10T15:24:07.126Z,13.70
2023-05-10T15:26:34.465Z,13.70
2023-05-10T15:29:01.856Z,13.70
2023-05-10T15:31:29.300Z,13.80
2023-05-10T15:34:00.152Z,13.70
2023-05-10T15:36:27.624Z,13.60
2023-05-10T15:38:55.667Z,13.50
2023-05-10T15:41:22.996Z,13.40
2023-05-10T15:43:50.237Z,13.50
2023-05-10T15:46:20.160Z,13.40
2023-05-10T15:48:47.331Z,13.30
2023-05-10T15:51:15.544Z,13.30
2023-05-10T15:53:56.591Z,13.30
2023-05-10T15:56:33.046Z,13.30
2023-05-10T15:59:00.275Z,13.10
2023-05-10T16:01:32.346Z,13.10
2023-05-10T16:04:01.253Z,13.10
2023-05-10T16:06:28.654Z,13.20
2023-05-10T16:08:56.077Z,12.90
2023-05-10T16:11:23.278Z,12.70
2023-05-10T16:13:50.440Z,12.70
2023-05-10T16:16:17.986Z,12.70
2023-05-10T16:18:45.396Z,12.50
2023-05-10T16:21:12.741Z,12.60
2023-05-10T16:23:40.196Z,12.50
2023-05-10T16:26:10.623Z,12.50
2023-05-10T16:28:38.767Z,12.40
2023-05-10T16:31:06.336Z,12.40
2023-05-10T16:33:33.562Z,12.40
2023-05-10T16:36:00.785Z,12.40
2023-05-10T16:38:28.301Z,12.40
2023-05-10T16:40:57.197Z,12.40
2023-05-10T16:43:26.108Z,12.30
2023-05-10T16:45:53.480Z,12.30
2023-05-10T16:48:20.761Z,12.40
2023-05-10T16:50:48.267Z,12.40
2023-05-10T16:53:16.064Z,12.40
2023-05-10T16:55:43.237Z,12.50
2023-05-10T16:58:10.876Z,12.40
2023-05-10T17:00:38.196Z,12.40
2023-05-10T17:03:05.616Z,12.40
2023-05-10T17:05:33.705Z,12.50
2023-05-10T17:08:01.383Z,12.40
2023-05-10T17:10:28.609Z,12.40
2023-05-10T17:12:56.060Z,12.40
2023-05-10T17:15:23.320Z,12.30
2023-05-10T17:17:50.699Z,12.30
2023-05-10T17:20:18.032Z,12.10
2023-05-10T17:22:45.207Z,12.00
2023-05-10T17:25:12.382Z,12.00
2023-05-10T17:27:39.574Z,11.80
2023-05-10T17:30:07.262Z,11.80
2023-05-10T17:32:34.488Z,11.70
2023-05-10T17:35:03.792Z,11.70
2023-05-10T17:37:32.914Z,11.70
2023-05-10T17:40:00.598Z,11.60
2023-05-10T17:42:28.215Z,11.50
2023-05-10T17:44:58.384Z,11.50
2023-05-10T17:47:25.636Z,11.50
2023-05-10T17:49:52.952Z,11.40
2023-05-10T17:52:20.195Z,11.30
2023-05-10T17:54:47.484Z,11.30
2023-05-10T17:57:14.774Z,11.40
2023-05-10T17:59:41.965Z,11.30
2023-05-10T18:02:09.181Z,11.30
2023-05-10T18:04:36.556Z,11.30
2023-05-10T18:07:03.826Z,11.30
2023-05-10T18:09:31.593Z,11.30
2023-05-10T18:11:59.096Z,11.20
2023-05-10T18:14:39.770Z,11.20
2023-05-10T18:17:08.712Z,11.30
2023-05-10T18:19:35.975Z,11.30
2023-05-10T18:22:03.328Z,11.30
2023-05-10T18:24:38.923Z,11.30
2023-05-10T18:27:08.659Z,11.20
2023-05-10T18:29:36.904Z,11.20
2023-05-10T18:32:07.014Z,11.30
2023-05-10T18:34:34.385Z,11.20
2023-05-10T18:37:07.603Z,11.20
2023-05-10T18:39:37.148Z,11.20
2023-05-10T18:42:05.338Z,11.10
2023-05-10T18:44:32.645Z,11.10
2023-05-10T18:47:00.003Z,11.00
2023-05-10T18:49:29.156Z,11.10
2023-05-10T18:51:56.443Z,11.10
2023-05-10T18:54:25.679Z,11.10
2023-05-10T18:56:57.269Z,11.20
2023-05-10T18:59:30.701Z,11.10
2023-05-10T19:01:57.932Z,11.10
2023-05-10T19:04:25.332Z,11.10
2023-05-10T19:06:52.886Z,11.10
2023-05-10T19:09:21.042Z,11.00
2023-05-10T19:11:48.653Z,11.20
2023-05-10T19:14:19.707Z,11.00
2023-05-10T19:16:51.927Z,11.00
2023-05-10T19:19:26.806Z,11.00
2023-05-10T19:21:54.805Z,10.90
2023-05-10T19:24:25.369Z,10.90
2023-05-10T19:26:56.612Z,10.90
2023-05-10T19:29:24.665Z,10.90
2023-05-10T19:31:55.755Z,10.80
2023-05-10T19:34:23.100Z,10.90
2023-05-10T19:36:50.540Z,10.90
2023-05-10T19:39:17.745Z,10.80
2023-05-10T19:41:47.834Z,10.80
2023-05-10T19:44:15.065Z,10.80
2023-05-10T19:46:42.359Z,10.70
2023-05-10T19:49:14.303Z,10.70
2023-05-10T19:51:42.210Z,10.70
2023-05-10T19:54:12.311Z,10.70
2023-05-10T19:56:39.474Z,10.80
2023-05-10T19:59:07.714Z,10.90
2023-05-10T20:01:35.252Z,10.80
2023-05-10T20:04:05.854Z,10.80
2023-05-10T20:06:33.105Z,11.30
2023-05-10T20:09:00.316Z,10.80
2023-05-10T20:11:27.535Z,11.00
2023-05-10T20:13:54.904Z,10.90
2023-05-10T20:16:23.785Z,10.80
2023-05-10T20:18:54.254Z,10.90
2023-05-10T20:21:22.331Z,10.80
2023-05-10T20:23:49.561Z,10.80
2023-05-10T20:26:16.801Z,10.80
2023-05-10T20:28:44.067Z,10.70
2023-05-10T20:31:11.666Z,10.70
2023-05-10T20:33:38.853Z,10.80
2023-05-10T20:36:09.438Z,10.80
2023-05-10T20:38:36.816Z,10.70
2023-05-10T20:41:03.972Z,10.70
2023-05-10T20:43:40.058Z,10.70
2023-05-10T20:46:07.706Z,10.70
2023-05-10T20:48:34.968Z,10.70
2023-05-10T20:51:05.571Z,10.70
2023-05-10T20:53:32.783Z,10.70
2023-05-10T20:56:02.033Z,10.80
2023-05-10T20:58:29.180Z,10.80
2023-05-10T21:00:57.137Z,10.70
2023-05-10T21:03:28.805Z,10.70
2023-05-10T21:06:01.190Z,10.70
2023-05-10T21:08:28.624Z,10.70
2023-05-10T21:10:55.981Z,10.70
2023-05-10T21:13:23.133Z,10.70
2023-05-10T21:15:50.555Z,10.70
2023-05-10T21:18:20.056Z,10.60
2023-05-10T21:20:47.463Z,10.60
2023-05-10T21:23:17.019Z,10.60
2023-05-10T21:25:45.116Z,10.60
2023-05-10T21:28:20.663Z,10.70
2023-05-10T21:30:49.481Z,10.60
2023-05-10T21:33:16.934Z,10.50
2023-05-10T21:35:46.460Z,10.50
2023-05-10T21:38:13.627Z,10.50
2023-05-10T21:40:41.102Z,10.50
2023-05-10T21:43:08.337Z,10.50
2023-05-10T21:45:36.453Z,10.40
2023-05-10T21:48:03.858Z,10.30
2023-05-10T21:50:31.093Z,10.30
2023-05-10T21:53:03.210Z,10.30
2023-05-10T21:55:31.409Z,10.20
2023-05-10T21:58:00.313Z,10.20
2023-05-10T22:00:27.570Z,10.20
2023-05-10T22:02:55.096Z,10.20
2023-05-10T22:05:22.462Z,10.10
2023-05-10T22:07:50.372Z,10.10
2023-05-10T22:10:18.815Z,10.10
2023-05-10T22:12:50.304Z,10.00
2023-05-10T22:15:17.714Z,10.00
2023-05-10T22:17:45.034Z,10.00
2023-05-10T22:20:12.489Z,9.90
2023-05-10T22:23:27.494Z,9.90
2023-05-10T22:25:58.978Z,9.90
2023-05-10T22:28:28.625Z,9.90
2023-05-10T22:30:56.048Z,9.90
2023-05-10T22:33:24.179Z,9.80
2023-05-10T22:35:51.330Z,9.90
2023-05-10T22:38:18.742Z,9.70
2023-05-10T22:40:46.046Z,9.70
2023-05-10T22:43:13.281Z,9.70
2023-05-10T22:45:40.553Z,9.70
2023-05-10T22:48:09.547Z,9.60
2023-05-10T22:50:37.035Z,9.60
2023-05-10T22:53:04.245Z,9.50
2023-05-10T22:55:31.491Z,9.50
2023-05-10T22:57:58.981Z,9.50
2023-05-10T23:00:26.251Z,9.50
2023-05-10T23:02:54.359Z,9.40
2023-05-10T23:05:21.612Z,9.40
2023-05-10T23:07:53.038Z,9.40
2023-05-10T23:10:21.610Z,9.30
2023-05-10T23:12:48.796Z,9.40
2023-05-10T23:15:18.912Z,9.30
2023-05-10T23:17:48.563Z,9.30
2023-05-10T23:20:16.176Z,9.30
2023-05-10T23:22:43.870Z,9.30
2023-05-10T23:25:11.206Z,9.30
2023-05-10T23:27:38.466Z,9.40
2023-05-10T23:30:06.258Z,9.30
2023-05-10T23:32:33.776Z,9.30
2023-05-10T23:35:01.168Z,9.30
2023-05-10T23:37:28.351Z,9.30
2023-05-10T23:39:55.672Z,9.30
2023-05-10T23:42:23.189Z,9.30
2023-05-10T23:44:52.303Z,9.40
2023-05-10T23:47:19.536Z,9.30
2023-05-10T23:49:46.679Z,9.30
2023-05-10T23:52:14.019Z,9.30
2023-05-10T23:54:41.733Z,9.30
2023-05-10T23:57:09.771Z,9.30
2023-05-10T23:59:37.055Z,9.30
